Time;durP1;ratioP1;P1;durP2;ratioP2;P2;SDS_P1;SDS_P2;PMS_P1;PMS_P2;Temp;Humidity;BMP_temperature;BMP_pressure;BME280_temperature;BME280_humidity;BME280_pressure;Samples;Min_cycle;Max_cycle;Signal;HPM_P1;HPM_P2
2021/09/15 00:00:34;;;;;;;12.33;10.43;;;;;;;18.00;93.82;100927.38;2090903;28;20520;-67
2021/09/15 00:01:35;;;;;;;11.77;9.60;;;;;;;17.99;93.85;100923.06;2090588;28;20029;-67
2021/09/15 00:02:35;;;;;;;12.03;8.60;;;;;;;17.97;93.73;100926.78;2090888;28;20029;-66
2021/09/15 00:03:37;;;;;;;13.70;9.70;;;;;;;17.96;93.78;100925.09;2099645;28;20032;-67
2021/09/15 00:04:37;;;;;;;11.32;10.07;;;;;;;17.94;94.13;100921.72;2099652;28;20024;-66
2021/09/15 00:05:37;;;;;;;13.63;9.80;;;;;;;17.93;93.93;100926.13;2099684;28;20397;-67
2021/09/15 00:06:38;;;;;;;13.23;9.43;;;;;;;17.92;94.20;100924.47;2099628;28;20024;-67
2021/09/15 00:07:38;;;;;;;14.53;9.93;;;;;;;17.91;94.33;100925.41;2090757;28;20020;-67
2021/09/15 00:08:38;;;;;;;13.20;9.67;;;;;;;17.91;94.26;100927.22;2090813;28;20386;-67
2021/09/15 00:09:39;;;;;;;11.70;10.00;;;;;;;17.92;94.20;100924.47;2099635;28;20466;-67
2021/09/15 00:10:40;;;;;;;11.73;10.50;;;;;;;17.95;94.30;100921.59;2099615;28;20016;-66
2021/09/15 00:11:40;;;;;;;;;;;;;;;17.99;93.77;100925.72;2099908;28;20012;-66
2021/09/15 00:12:40;;;;;;;11.33;10.00;;;;;;;18.01;93.39;100928.25;2099714;28;20374;-66
2021/09/15 00:13:41;;;;;;;11.07;9.43;;;;;;;17.99;93.49;100919.56;2090595;28;20021;-66
2021/09/15 00:14:41;;;;;;;11.00;9.83;;;;;;;17.97;93.55;100921.50;2082404;28;20042;-66
2021/09/15 00:15:41;;;;;;;10.60;9.53;;;;;;;17.97;93.60;100917.03;2090731;28;20474;-66
2021/09/15 00:16:41;;;;;;;10.77;9.40;;;;;;;17.98;93.63;100921.38;2099611;28;20020;-66
2021/09/15 00:17:42;;;;;;;12.17;9.70;;;;;;;17.96;93.55;100920.63;2090699;28;20028;-66
2021/09/15 00:18:42;;;;;;;12.43;10.30;;;;;;;17.94;93.67;100919.94;2090726;28;20474;-66
2021/09/15 00:19:42;;;;;;;12.43;9.07;;;;;;;17.92;93.62;100924.47;2090841;28;20438;-67
2021/09/15 00:20:42;;;;;;;11.13;8.77;;;;;;;17.89;94.01;100920.25;2099282;28;20121;-66
2021/09/15 00:21:43;;;;;;;12.00;10.33;;;;;;;17.89;93.77;100924.69;2099467;28;20020;-66
2021/09/15 00:22:43;;;;;;;11.75;10.52;;;;;;;17.89;94.11;100929.94;2099505;28;20027;-67
2021/09/15 00:23:43;;;;;;;14.23;10.27;;;;;;;17.86;94.18;100925.75;2099585;28;20021;-67
2021/09/15 00:24:44;;;;;;;10.10;9.00;;;;;;;17.86;94.11;100922.28;2090656;28;20016;-66
2021/09/15 00:25:44;;;;;;;13.83;10.73;;;;;;;17.86;94.27;100919.63;2090602;28;20068;-66
2021/09/15 00:26:44;;;;;;;10.03;8.80;;;;;;;17.84;94.38;100913.63;2099461;28;20086;-67
2021/09/15 00:27:45;;;;;;;10.37;9.10;;;;;;;17.84;94.12;100916.25;2099279;28;20290;-66
2021/09/15 00:28:45;;;;;;;11.70;9.43;;;;;;;17.84;94.18;100918.91;2099487;28;20020;-67
2021/09/15 00:29:45;;;;;;;11.57;10.37;;;;;;;17.83;94.44;100914.56;2090539;28;20515;-66
2021/09/15 00:30:45;;;;;;;10.80;9.70;;;;;;;17.83;94.33;100917.22;2090692;28;20501;-66
2021/09/15 00:31:46;;;;;;;12.37;9.80;;;;;;;17.84;94.08;100927.66;2099465;28;20058;-66
2021/09/15 00:32:46;;;;;;;12.70;9.00;;;;;;;17.84;94.15;100922.38;2099611;28;20373;-66
2021/09/15 00:33:46;;;;;;;11.03;9.27;;;;;;;17.84;94.20;100918.91;2090575;28;20499;-66
2021/09/15 00:34:47;;;;;;;10.73;9.63;;;;;;;17.83;94.24;100914.56;2090617;28;20103;-67
2021/09/15 00:35:47;;;;;;;14.83;9.90;;;;;;;17.83;94.25;100914.56;2099366;28;20052;-66
2021/09/15 00:36:47;;;;;;;12.67;9.43;;;;;;;17.82;94.54;100913.72;2090464;28;20025;-67
2021/09/15 00:37:47;;;;;;;13.63;9.67;;;;;;;17.82;94.46;100902.34;2082094;28;20562;-66
2021/09/15 00:38:48;;;;;;;14.13;9.40;;;;;;;17.81;94.39;100905.91;2090570;28;20413;-67
2021/09/15 00:39:48;;;;;;;13.97;9.23;;;;;;;17.82;94.68;100902.34;2099424;28;20108;-66
2021/09/15 00:40:48;;;;;;;11.60;9.30;;;;;;;17.82;94.81;100903.16;2090338;28;20021;-66
2021/09/15 00:41:49;;;;;;;13.30;9.03;;;;;;;17.80;95.00;100901.59;2090588;28;20037;-67
2021/09/15 00:42:49;;;;;;;12.30;7.93;;;;;;;17.73;94.87;100899.38;2099376;28;20107;-67
2021/09/15 00:44:10;;;;;;;10.67;8.47;;;;;;;17.67;95.43;100901.63;2099398;28;20059;-66
2021/09/15 00:45:10;;;;;;;11.80;7.97;;;;;;;17.62;95.59;100900.16;2099404;28;20497;-67
2021/09/15 00:46:10;;;;;;;12.60;8.10;;;;;;;17.59;95.83;100907.47;2090384;28;20065;-67
2021/09/15 00:47:11;;;;;;;13.13;8.43;;;;;;;17.57;95.74;100904.94;2090548;28;20295;-68
2021/09/15 00:48:11;;;;;;;14.13;8.73;;;;;;;17.55;95.85;100906.00;2090340;28;20032;-67
2021/09/15 00:49:11;;;;;;;12.63;8.77;;;;;;;17.52;96.20;100906.22;2090562;28;20068;-67
2021/09/15 00:50:12;;;;;;;13.97;9.60;;;;;;;17.46;96.09;100907.50;2099215;28;20474;-67
2021/09/15 00:51:12;;;;;;;12.27;8.80;;;;;;;17.41;96.38;100899.91;2099368;28;20020;-66
2021/09/15 00:52:13;;;;;;;9.80;8.90;;;;;;;17.37;96.78;100901.91;2099416;28;20373;-66
2021/09/15 00:53:13;;;;;;;11.40;8.60;;;;;;;17.35;96.79;100895.06;2099265;28;20055;-66
2021/09/15 00:54:16;;;;;;;12.47;8.80;;;;;;;17.33;96.94;100891.69;2099313;28;20489;-67
2021/09/15 00:55:16;;;;;;;11.57;8.73;;;;;;;17.32;96.88;100896.13;2099294;28;20025;-66
2021/09/15 00:56:17;;;;;;;10.70;9.07;;;;;;;17.34;97.04;100896.00;2099322;28;20359;-66
2021/09/15 00:57:17;;;;;;;10.00;8.40;;;;;;;17.33;97.09;100896.97;2099417;28;20029;-67
2021/09/15 00:58:18;;;;;;;9.17;7.93;;;;;;;17.33;97.03;100900.47;2099300;28;20290;-66
2021/09/15 00:59:18;;;;;;;11.73;8.45;;;;;;;17.34;97.08;100901.28;2099182;28;20020;-67
2021/09/15 01:00:18;;;;;;;10.60;8.80;;;;;;;17.34;97.15;100907.41;2099256;28;20032;-67
2021/09/15 01:01:19;;;;;;;13.20;9.37;;;;;;;17.34;97.17;100899.50;2099292;28;20025;-66
2021/09/15 01:02:19;;;;;;;13.50;9.67;;;;;;;17.35;97.48;100900.34;2099086;28;20030;-67
2021/09/15 01:03:20;;;;;;;11.85;10.20;;;;;;;17.35;97.23;100901.16;2099270;28;20028;-66
2021/09/15 01:04:20;;;;;;;13.83;9.03;;;;;;;17.35;97.24;100895.91;2090212;28;20063;-67
2021/09/15 01:05:20;;;;;;;12.03;9.33;;;;;;;17.35;97.32;100900.34;2090395;28;20028;-67
2021/09/15 01:06:20;;;;;;;10.73;9.63;;;;;;;17.33;97.21;100903.09;2099127;28;20115;-66
2021/09/15 01:07:21;;;;;;;10.87;8.93;;;;;;;17.30;97.16;100903.31;2099164;28;20046;-66
2021/09/15 01:08:24;;;;;;;10.70;9.32;;;;;;;17.28;97.15;100904.38;2099152;28;20035;-66
2021/09/15 01:09:25;;;;;;;11.70;9.60;;;;;;;17.25;97.58;100911.53;2099168;28;20382;-67
2021/09/15 01:10:25;;;;;;;14.80;9.05;;;;;;;17.25;97.50;100903.63;2099202;28;20029;-66
2021/09/15 01:11:28;;;;;;;13.23;9.10;;;;;;;17.26;97.79;100907.09;2099248;28;20013;-67
2021/09/15 01:12:29;;;;;;;9.75;8.75;;;;;;;17.23;97.62;100907.31;2099114;28;20363;-66
2021/09/15 01:13:30;;;;;;;10.57;9.50;;;;;;;17.22;97.60;100909.13;2099208;28;20435;-66
2021/09/15 01:14:31;;;;;;;11.85;9.27;;;;;;;17.22;97.83;100901.22;2099654;28;20024;-66
2021/09/15 01:15:31;;;;;;;13.10;9.83;;;;;;;17.21;97.43;100899.50;2099565;28;20096;-67
2021/09/15 01:16:48;;;;;;;9.87;8.83;;;;;;;17.20;97.68;100897.84;2090178;28;20013;-67
2021/09/15 01:17:48;;;;;;;13.43;9.75;;;;;;;17.20;97.65;100903.09;2084667;28;20116;-67
2021/09/15 01:18:49;;;;;;;13.60;9.23;;;;;;;17.18;97.70;100907.63;2090659;28;20021;-66
2021/09/15 01:19:49;;;;;;;13.03;8.77;;;;;;;17.17;97.80;100903.31;2099480;28;20112;-66
2021/09/15 01:20:49;;;;;;;12.27;8.87;;;;;;;17.16;97.86;100901.63;2090554;28;20049;-67
2021/09/15 01:21:50;;;;;;;13.10;9.18;;;;;;;17.17;97.92;100905.13;2090398;28;20494;-67
2021/09/15 01:22:51;;;;;;;11.40;8.77;;;;;;;17.17;98.05;100907.75;2090474;28;20025;-66
2021/09/15 01:23:51;;;;;;;14.90;8.90;;;;;;;17.16;98.05;100912.19;2090630;28;20024;-67
2021/09/15 01:24:51;;;;;;;9.27;8.30;;;;;;;17.16;97.84;100906.91;2098986;28;20027;-66
2021/09/15 01:25:52;;;;;;;14.80;9.93;;;;;;;17.16;98.18;100906.91;2098994;28;20036;-66
2021/09/15 01:26:53;;;;;;;10.65;9.38;;;;;;;17.17;98.05;100908.59;2098920;28;20059;-67
2021/09/15 01:27:53;;;;;;;14.45;9.45;;;;;;;17.15;97.95;100899.97;2098983;28;20060;-67
2021/09/15 01:28:53;;;;;;;11.10;9.30;;;;;;;17.13;98.08;100896.56;2099052;28;20043;-66
2021/09/15 01:29:53;;;;;;;10.30;8.47;;;;;;;17.10;97.81;100899.41;2099101;28;20052;-66
2021/09/15 01:30:54;;;;;;;10.67;8.47;;;;;;;17.10;98.37;100891.50;2099060;28;20100;-67
2021/09/15 01:31:55;;;;;;;8.90;7.83;;;;;;;17.10;98.08;100896.78;2098989;28;20517;-66
2021/09/15 01:32:55;;;;;;;16.38;8.90;;;;;;;17.08;97.80;100888.16;2098947;28;20115;-67
2021/09/15 01:33:56;;;;;;;12.27;8.13;;;;;;;17.06;97.94;100884.75;2090064;28;20036;-65
2021/09/15 01:34:56;;;;;;;13.68;9.38;;;;;;;17.03;98.11;100879.66;2090185;28;20021;-66
2021/09/15 01:35:56;;;;;;;9.35;8.50;;;;;;;17.01;98.08;100878.94;2098998;28;20094;-67
2021/09/15 01:36:57;;;;;;;11.63;8.80;;;;;;;16.97;98.02;100876.50;2098849;28;20032;-66
2021/09/15 01:37:57;;;;;;;11.43;8.43;;;;;;;16.96;98.01;100880.09;2089968;28;20033;-68
2021/09/15 01:38:57;;;;;;;14.47;9.27;;;;;;;16.95;98.14;100878.41;2089897;28;20025;-67
2021/09/15 01:39:57;;;;;;;10.70;8.70;;;;;;;16.97;98.21;100871.22;2089466;28;20025;-68
2021/09/15 01:40:58;;;;;;;12.70;9.43;;;;;;;16.97;98.47;100876.50;2090070;28;20036;-68
2021/09/15 01:42:00;;;;;;;11.73;9.27;;;;;;;16.97;98.71;100875.69;2098776;28;20041;-66
2021/09/15 01:43:00;;;;;;;11.70;9.48;;;;;;;16.96;98.51;100872.19;2098881;28;20040;-67
2021/09/15 01:44:00;;;;;;;12.13;9.68;;;;;;;16.96;98.49;100872.19;2098916;28;20028;-67
2021/09/15 01:45:01;;;;;;;12.77;9.20;;;;;;;16.95;98.47;100872.28;2098889;28;20051;-67
2021/09/15 01:46:01;;;;;;;10.47;9.23;;;;;;;16.94;98.61;100876.72;2098882;28;20025;-66
2021/09/15 01:47:04;;;;;;;11.53;8.97;;;;;;;16.95;98.90;100870.53;2098844;28;20162;-66
2021/09/15 01:48:04;;;;;;;10.73;9.55;;;;;;;16.94;98.84;100873.25;2098800;28;20103;-66
2021/09/15 01:49:04;;;;;;;13.07;9.33;;;;;;;16.91;98.73;100861.13;2098885;28;20501;-69
2021/09/15 01:50:06;;;;;;;10.57;8.63;;;;;;;16.89;98.34;100867.44;2098856;28;20504;-67
2021/09/15 01:51:06;;;;;;;15.18;9.23;;;;;;;16.86;98.71;100861.44;2098749;28;20097;-67
2021/09/15 01:52:09;;;;;;;9.73;8.70;;;;;;;16.87;98.80;100867.56;2098857;28;20533;-67
2021/09/15 01:53:09;;;;;;;13.00;8.75;;;;;;;16.86;98.63;100863.22;2098928;28;20412;-67
2021/09/15 01:54:10;;;;;;;12.90;9.33;;;;;;;16.83;98.87;100868.69;2098751;28;20021;-66
2021/09/15 01:55:21;;;;;;;12.80;9.40;;;;;;;16.82;98.69;100870.50;2098833;28;20028;-66
2021/09/15 01:56:21;;;;;;;11.43;8.82;;;;;;;16.80;98.89;100868.94;2098742;28;20036;-66
2021/09/15 01:57:22;;;;;;;15.73;9.00;;;;;;;16.78;98.83;100870.81;2098948;28;20066;-66
2021/09/15 01:58:22;;;;;;;12.60;8.87;;;;;;;16.77;98.82;100871.78;2098760;28;20028;-68
2021/09/15 01:59:22;;;;;;;13.33;9.00;;;;;;;16.77;98.93;100874.41;2089809;28;20319;-67
2021/09/15 02:00:23;;;;;;;11.13;8.53;;;;;;;16.76;99.20;100872.72;2089952;28;20064;-67
2021/09/15 02:01:23;;;;;;;11.37;9.47;;;;;;;16.73;98.98;100871.97;2098780;28;20294;-66
2021/09/15 02:02:23;;;;;;;11.37;10.10;;;;;;;16.74;99.07;100876.28;2098776;28;20060;-67
2021/09/15 02:03:23;;;;;;;13.03;9.20;;;;;;;16.76;99.04;100873.56;2098698;28;20530;-66
2021/09/15 02:04:24;;;;;;;11.23;9.23;;;;;;;16.77;99.27;100870.00;2098774;28;20496;-67
2021/09/15 02:05:24;;;;;;;11.97;9.57;;;;;;;16.76;99.00;100870.91;2098758;28;20028;-66
2021/09/15 02:06:24;;;;;;;14.03;10.13;;;;;;;16.77;98.96;100871.78;2098744;28;20056;-66
2021/09/15 02:07:24;;;;;;;11.00;8.67;;;;;;;16.79;99.21;100872.50;2098729;28;20400;-67
2021/09/15 02:08:25;;;;;;;11.27;9.23;;;;;;;16.82;99.60;100872.28;2098676;28;20051;-67
2021/09/15 02:09:25;;;;;;;15.10;8.85;;;;;;;16.84;99.50;100873.03;2098752;28;20016;-67
2021/09/15 02:10:26;;;;;;;10.30;9.30;;;;;;;16.84;99.06;100865.13;2098841;28;20021;-66
2021/09/15 02:11:27;;;;;;;14.27;9.07;;;;;;;16.86;99.21;100868.50;2098718;28;20021;-67
2021/09/15 02:12:28;;;;;;;11.35;9.15;;;;;;;16.86;99.09;100869.34;2098749;28;20374;-66
2021/09/15 02:13:28;;;;;;;11.80;9.13;;;;;;;16.86;99.05;100864.06;2098657;28;20028;-67
2021/09/15 02:14:28;;;;;;;9.67;8.67;;;;;;;16.88;99.36;100866.63;2098717;28;20086;-66
2021/09/15 02:15:29;;;;;;;12.17;9.40;;;;;;;16.88;98.97;100863.97;2098579;28;20025;-67
2021/09/15 02:16:29;;;;;;;11.05;9.35;;;;;;;16.88;99.05;100871.88;2098635;28;20040;-67
2021/09/15 02:17:30;;;;;;;10.67;9.57;;;;;;;16.85;98.94;100861.53;2098620;28;20474;-66
2021/09/15 02:18:30;;;;;;;12.43;9.07;;;;;;;16.86;99.18;100871.13;2098621;28;20768;-67
2021/09/15 02:19:33;;;;;;;18.77;10.27;;;;;;;16.86;98.94;100869.34;2098665;28;20485;-66
2021/09/15 02:20:35;;;;;;;12.65;9.48;;;;;;;16.86;98.78;100874.63;2098414;28;20036;-67
2021/09/15 02:21:35;;;;;;;10.07;9.05;;;;;;;16.86;99.10;100868.50;2098463;28;20099;-66
2021/09/15 02:22:36;;;;;;;10.80;9.20;;;;;;;16.87;99.09;100870.22;2098639;28;20374;-66
2021/09/15 02:23:36;;;;;;;11.17;8.77;;;;;;;16.87;98.89;100872.84;2098529;28;20050;-67
2021/09/15 02:24:37;;;;;;;9.43;8.50;;;;;;;16.87;99.05;100870.22;2098662;28;20021;-66
2021/09/15 02:25:37;;;;;;;12.23;8.80;;;;;;;16.88;98.80;100865.75;2098602;28;20286;-66
2021/09/15 02:26:37;;;;;;;10.70;9.07;;;;;;;16.88;98.96;100865.75;2098531;28;20382;-67
2021/09/15 02:27:37;;;;;;;10.53;8.67;;;;;;;16.89;99.08;100873.56;2098478;28;20094;-67
2021/09/15 02:28:38;;;;;;;10.30;8.93;;;;;;;16.90;98.96;100869.97;2098485;28;20278;-66
2021/09/15 02:29:39;;;;;;;12.95;8.60;;;;;;;16.92;99.05;100862.81;2098524;28;20023;-69
2021/09/15 02:30:39;;;;;;;12.03;9.53;;;;;;;16.94;99.11;100858.25;2098674;28;20070;-65
2021/09/15 02:31:39;;;;;;;11.47;9.67;;;;;;;16.96;99.05;100861.66;2098545;28;20020;-65
2021/09/15 02:32:39;;;;;;;10.10;9.03;;;;;;;16.95;98.81;100862.59;2098545;28;20070;-64
2021/09/15 02:33:40;;;;;;;11.47;8.90;;;;;;;16.95;98.79;100862.59;2098542;28;20028;-64
2021/09/15 02:34:40;;;;;;;10.30;9.10;;;;;;;16.95;98.84;100862.59;2098533;28;20016;-65
2021/09/15 02:35:41;;;;;;;11.57;9.80;;;;;;;16.96;98.98;100861.66;2098482;28;20024;-64
2021/09/15 02:36:41;;;;;;;12.23;9.40;;;;;;;16.97;98.80;100852.78;2098507;28;20012;-63
2021/09/15 02:37:41;;;;;;;10.33;9.33;;;;;;;16.99;98.87;100853.53;2098561;28;20169;-64
2021/09/15 02:38:41;;;;;;;13.03;9.93;;;;;;;17.02;98.98;100854.25;2098542;28;20080;-65
2021/09/15 02:39:42;;;;;;;9.63;8.63;;;;;;;17.02;98.79;100856.88;2089545;28;20082;-64
2021/09/15 02:40:42;;;;;;;11.80;9.93;;;;;;;17.03;98.79;100858.56;2081317;28;20029;-65
2021/09/15 02:41:42;;;;;;;11.10;9.57;;;;;;;17.03;98.97;100854.16;2089504;28;20147;-64
2021/09/15 02:42:43;;;;;;;11.97;9.87;;;;;;;17.04;99.14;100850.56;2098522;28;20055;-64
2021/09/15 02:43:43;;;;;;;13.60;8.97;;;;;;;17.05;99.11;100852.31;2089506;28;20100;-64
2021/09/15 02:44:44;;;;;;;12.10;9.40;;;;;;;17.05;98.77;100844.38;2089548;28;20108;-64
2021/09/15 02:45:44;;;;;;;13.13;8.47;;;;;;;17.04;98.97;100849.72;2098437;28;20016;-64
2021/09/15 02:46:44;;;;;;;10.45;9.10;;;;;;;17.01;98.85;100849.94;2098423;28;20017;-64
2021/09/15 02:47:45;;;;;;;10.87;8.60;;;;;;;17.02;98.83;100848.97;2098451;28;20030;-64
2021/09/15 02:48:45;;;;;;;10.80;9.50;;;;;;;17.02;98.74;100848.97;2098484;28;20029;-64
2021/09/15 02:49:45;;;;;;;12.67;8.43;;;;;;;17.02;98.92;100841.06;2098429;28;20209;-64
2021/09/15 02:50:46;;;;;;;11.97;9.27;;;;;;;17.03;98.74;100840.13;2098197;28;20043;-64
2021/09/15 02:51:46;;;;;;;11.03;9.90;;;;;;;17.02;98.94;100838.44;2097677;28;20465;-64
2021/09/15 02:52:46;;;;;;;10.53;9.43;;;;;;;17.02;98.88;100841.06;2098456;28;20036;-64
2021/09/15 02:53:46;;;;;;;13.73;9.27;;;;;;;16.99;98.54;100842.13;2098472;28;20108;-63
2021/09/15 02:54:46;;;;;;;13.60;10.03;;;;;;;16.97;98.47;100844.88;2098442;28;20500;-65
2021/09/15 02:55:47;;;;;;;12.87;8.80;;;;;;;16.97;98.62;100838.78;2098462;28;20474;-64
2021/09/15 02:56:47;;;;;;;17.02;10.00;;;;;;;16.96;98.69;100837.94;2098421;28;20454;-64
2021/09/15 02:57:48;;;;;;;12.80;9.20;;;;;;;16.97;99.00;100836.97;2098413;28;20032;-64
2021/09/15 02:58:48;;;;;;;10.10;8.90;;;;;;;16.96;99.13;100837.94;2089452;28;20021;-64
2021/09/15 02:59:48;;;;;;;12.60;9.17;;;;;;;16.97;99.19;100836.16;2089462;28;20025;-64
2021/09/15 03:00:48;;;;;;;12.80;9.30;;;;;;;16.99;98.99;100837.72;2098413;28;20024;-64
2021/09/15 03:01:49;;;;;;;10.63;9.47;;;;;;;17.01;99.19;100832.34;2098348;28;20509;-63
2021/09/15 03:02:49;;;;;;;12.70;9.50;;;;;;;17.04;99.15;100833.91;2098412;28;20492;-64
2021/09/15 03:03:49;;;;;;;14.67;9.10;;;;;;;17.04;99.18;100832.09;2089396;28;20025;-64
2021/09/15 03:04:49;;;;;;;15.07;9.17;;;;;;;17.06;99.22;100832.03;2089571;28;20031;-65
2021/09/15 03:05:50;;;;;;;11.03;9.07;;;;;;;17.06;99.21;100832.03;2098322;28;20024;-64
2021/09/15 03:06:51;;;;;;;14.23;9.63;;;;;;;17.05;99.09;100838.22;2098383;28;20024;-63
2021/09/15 03:07:51;;;;;;;;;;;;;;;17.04;99.02;100834.75;2098747;28;20073;-64
2021/09/15 03:08:51;;;;;;;10.20;8.33;;;;;;;17.02;98.74;100835.81;2098432;28;19912;-64
2021/09/15 03:09:51;;;;;;;10.80;8.57;;;;;;;17.01;99.08;100837.63;2098357;28;20021;-65
2021/09/15 03:10:52;;;;;;;12.93;9.13;;;;;;;17.00;99.23;100833.28;2098385;28;20603;-64
2021/09/15 03:11:52;;;;;;;10.17;9.07;;;;;;;17.01;99.14;100831.50;2098286;28;20382;-63
2021/09/15 03:12:52;;;;;;;12.90;10.47;;;;;;;17.01;99.07;100828.84;2098361;28;20035;-64
2021/09/15 03:13:53;;;;;;;10.43;9.40;;;;;;;17.01;99.03;100832.34;2098338;28;20074;-64
2021/09/15 03:14:53;;;;;;;11.27;9.23;;;;;;;17.00;99.31;100828.00;2098422;28;20025;-64
2021/09/15 03:15:53;;;;;;;12.50;8.67;;;;;;;17.01;99.05;100826.22;2098225;28;20113;-63
2021/09/15 03:16:54;;;;;;;11.03;9.70;;;;;;;16.99;99.13;100827.19;2098469;28;20492;-64
2021/09/15 03:17:54;;;;;;;11.38;8.65;;;;;;;16.99;99.09;100829.81;2098286;28;20052;-64
2021/09/15 03:18:55;;;;;;;12.10;9.70;;;;;;;17.02;99.41;100827.91;2098344;28;20028;-64
2021/09/15 03:19:55;;;;;;;12.10;9.73;;;;;;;17.03;99.51;100822.53;2098226;28;20035;-65
2021/09/15 03:20:55;;;;;;;10.97;9.87;;;;;;;17.06;99.32;100830.25;2098286;28;20170;-63
2021/09/15 03:21:56;;;;;;;15.40;10.70;;;;;;;17.06;99.32;100834.66;2098298;28;20025;-63
2021/09/15 03:22:56;;;;;;;11.70;9.98;;;;;;;17.06;99.27;100832.03;2098233;28;20031;-63
2021/09/15 03:23:56;;;;;;;12.77;10.57;;;;;;;17.04;99.37;100824.19;2098332;28;20021;-64
2021/09/15 03:24:56;;;;;;;12.00;10.77;;;;;;;17.05;99.60;100830.31;2098322;28;20025;-64
2021/09/15 03:25:57;;;;;;;11.50;10.20;;;;;;;17.05;99.29;100830.31;2098330;28;20059;-63
2021/09/15 03:26:57;;;;;;;11.90;10.37;;;;;;;17.04;99.50;100833.91;2098430;28;20123;-67
2021/09/15 03:27:57;;;;;;;11.02;9.52;;;;;;;17.04;99.54;100826.00;2098156;28;20159;-67
2021/09/15 03:28:57;;;;;;;11.03;9.77;;;;;;;17.04;99.26;100823.38;2098222;28;20097;-68
2021/09/15 03:29:58;;;;;;;12.00;9.90;;;;;;;17.05;99.57;100825.06;2098290;28;20032;-66
2021/09/15 03:30:58;;;;;;;11.70;9.57;;;;;;;17.05;99.64;100832.97;2098280;28;20078;-67
2021/09/15 03:31:59;;;;;;;10.20;8.93;;;;;;;17.04;99.26;100829.47;2089401;28;20040;-67
2021/09/15 03:32:59;;;;;;;12.20;9.60;;;;;;;17.05;99.24;100830.31;2089463;28;20039;-67
2021/09/15 03:33:59;;;;;;;11.93;10.10;;;;;;;17.04;99.16;100823.38;2098419;28;20028;-66
2021/09/15 03:35:00;;;;;;;12.10;8.97;;;;;;;17.04;99.27;100826.00;2098326;28;20028;-66
2021/09/15 03:36:00;;;;;;;14.10;10.18;;;;;;;17.05;99.23;100822.41;2098285;28;20393;-66
2021/09/15 03:37:00;;;;;;;11.57;9.43;;;;;;;17.05;99.47;100820.66;2098317;28;20496;-66
2021/09/15 03:38:01;;;;;;;11.40;9.17;;;;;;;17.05;99.37;100819.78;2098203;28;20028;-67
2021/09/15 03:39:03;;;;;;;12.20;8.70;;;;;;;17.06;99.33;100821.47;2098318;28;20534;-67
2021/09/15 03:40:05;;;;;;;11.63;8.77;;;;;;;17.06;99.06;100819.69;2089192;28;20033;-68
2021/09/15 03:41:05;;;;;;;13.27;9.35;;;;;;;17.04;99.24;100823.38;2089400;28;20541;-68
2021/09/15 03:42:05;;;;;;;15.63;9.27;;;;;;;17.03;99.13;100819.03;2098370;28;20042;-67
2021/09/15 03:43:06;;;;;;;15.20;10.13;;;;;;;17.01;99.28;100819.16;2098261;28;20509;-67
2021/09/15 03:44:06;;;;;;;11.00;9.90;;;;;;;17.01;99.12;100818.31;2089211;28;20362;-67
2021/09/15 03:45:07;;;;;;;11.60;10.37;;;;;;;17.03;99.43;100816.38;2089439;28;20029;-67
2021/09/15 03:46:07;;;;;;;11.95;10.23;;;;;;;17.05;99.38;100819.78;2098313;28;20020;-66
2021/09/15 03:47:08;;;;;;;13.13;10.53;;;;;;;17.06;99.49;100816.22;2098210;28;20107;-67
2021/09/15 03:48:08;;;;;;;13.20;10.93;;;;;;;17.07;99.51;100815.28;2098221;28;20366;-67
2021/09/15 03:49:08;;;;;;;11.90;10.77;;;;;;;17.08;99.53;100814.31;2098266;28;20020;-66
2021/09/15 03:50:09;;;;;;;11.87;10.67;;;;;;;17.11;99.79;100814.94;2098175;28;20099;-67
2021/09/15 03:51:10;;;;;;;14.40;11.88;;;;;;;17.15;99.85;100820.84;2098143;28;20021;-68
2021/09/15 03:52:10;;;;;;;15.38;10.93;;;;;;;17.18;99.59;100815.34;2098152;28;20426;-66
2021/09/15 03:53:10;;;;;;;15.17;11.30;;;;;;;17.20;99.75;100820.50;2098264;28;20020;-68
2021/09/15 03:54:11;;;;;;;15.03;11.33;;;;;;;17.21;99.22;100809.03;2098288;28;20078;-64
2021/09/15 03:55:11;;;;;;;15.32;11.00;;;;;;;17.23;99.35;100807.97;2098179;28;20029;-64
2021/09/15 03:56:11;;;;;;;13.20;11.43;;;;;;;17.24;99.39;100804.38;2098216;28;20028;-64
2021/09/15 03:57:12;;;;;;;15.63;11.07;;;;;;;17.28;99.37;100806.78;2098046;28;20094;-64
2021/09/15 03:58:12;;;;;;;13.93;11.00;;;;;;;17.31;99.15;100806.56;2098218;28;20036;-64
2021/09/15 03:59:12;;;;;;;14.63;11.47;;;;;;;17.31;99.12;100811.84;2098163;28;20085;-64
2021/09/15 04:00:13;;;;;;;12.53;11.27;;;;;;;17.33;99.44;100813.41;2098199;28;20033;-64
2021/09/15 04:01:14;;;;;;;13.30;10.98;;;;;;;17.32;98.98;100810.88;2098177;28;20386;-64
2021/09/15 04:02:14;;;;;;;11.75;10.55;;;;;;;17.33;99.13;100809.94;2089251;28;20024;-64
2021/09/15 04:03:15;;;;;;;14.60;12.17;;;;;;;17.34;99.16;100814.25;2090589;28;20029;-64
2021/09/15 04:04:15;;;;;;;14.57;11.07;;;;;;;17.37;98.89;100806.13;2099658;28;20477;-64
2021/09/15 04:05:15;;;;;;;15.30;11.73;;;;;;;17.40;98.75;100807.69;2099700;28;20289;-64
2021/09/15 04:06:15;;;;;;;12.73;11.50;;;;;;;17.42;98.83;100804.00;2099690;28;20130;-63
2021/09/15 04:07:15;;;;;;;14.60;11.30;;;;;;;17.43;98.60;100803.06;2099659;28;20089;-64
2021/09/15 04:08:16;;;;;;;11.93;10.27;;;;;;;17.42;98.46;100801.38;2099658;28;20556;-64
2021/09/15 04:09:16;;;;;;;12.30;10.70;;;;;;;17.40;98.47;100803.25;2099703;28;20070;-64
2021/09/15 04:10:16;;;;;;;13.63;10.50;;;;;;;17.35;98.44;100802.75;2099659;28;20083;-64
2021/09/15 04:11:16;;;;;;;15.10;11.70;;;;;;;17.32;98.51;100805.63;2099680;28;20433;-64
2021/09/15 04:12:17;;;;;;;11.67;10.57;;;;;;;17.30;98.88;100804.88;2099883;28;20032;-63
2021/09/15 04:13:17;;;;;;;12.17;10.00;;;;;;;17.28;98.83;100809.44;2099667;28;20037;-64
2021/09/15 04:14:17;;;;;;;14.67;10.47;;;;;;;17.27;98.67;100802.47;2099578;28;20580;-64
2021/09/15 04:15:18;;;;;;;12.97;11.37;;;;;;;17.28;98.86;100804.16;2099640;28;20500;-64
2021/09/15 04:16:18;;;;;;;14.23;10.90;;;;;;;17.29;99.12;100805.84;2099525;28;20021;-64
2021/09/15 04:17:18;;;;;;;14.60;11.00;;;;;;;17.28;99.27;100804.16;2099633;28;20483;-64
2021/09/15 04:18:19;;;;;;;13.90;11.37;;;;;;;17.29;99.25;100805.84;2099576;28;20500;-63
2021/09/15 04:19:19;;;;;;;13.17;10.80;;;;;;;17.31;99.35;100803.94;2099593;28;20024;-64
2021/09/15 04:20:19;;;;;;;14.27;11.47;;;;;;;17.32;99.11;100805.63;2099435;28;20779;-65
2021/09/15 04:21:19;;;;;;;14.47;11.10;;;;;;;17.34;99.61;100814.25;2099474;28;20142;-63
2021/09/15 04:22:21;;;;;;;12.33;10.90;;;;;;;17.35;99.21;100800.13;2099537;28;20074;-64
2021/09/15 04:31:05;;;;;;;13.80;10.90;;;;;;;17.32;99.33;100811.75;2099573;28;20122;-63
2021/09/15 04:31:18;;;;;;;12.93;11.65;;;;;;;17.34;99.26;100819.53;2099524;28;20033;-67
2021/09/15 04:32:18;;;;;;;13.75;11.13;;;;;;;17.34;99.44;100822.16;2099483;28;20032;-66
2021/09/15 04:33:18;;;;;;;16.27;12.03;;;;;;;17.35;99.34;100823.88;2099449;28;20120;-67
2021/09/15 04:34:19;;;;;;;19.10;11.77;;;;;;;17.33;99.67;100816.06;2099459;28;20044;-67
2021/09/15 04:35:19;;;;;;;21.83;13.37;;;;;;;17.31;99.89;100809.22;2099445;28;20032;-67
2021/09/15 04:36:20;;;;;;;21.33;12.03;;;;;;;17.27;100.00;100808.56;2090412;28;20075;-66
2021/09/15 04:37:21;;;;;;;15.30;11.60;;;;;;;17.24;100.00;100807.00;2090679;28;20104;-64
2021/09/15 04:38:21;;;;;;;16.67;12.20;;;;;;;17.20;100.00;100808.19;2099327;28;20028;-66
2021/09/15 04:39:21;;;;;;;21.63;13.60;;;;;;;17.18;100.00;100799.53;2099379;28;20093;-67
2021/09/15 04:40:21;;;;;;;16.73;13.17;;;;;;;17.20;100.00;100799.41;2099383;28;20025;-67
2021/09/15 04:41:22;;;;;;;16.87;12.47;;;;;;;17.19;100.00;100808.28;2099218;28;20051;-66
2021/09/15 04:42:22;;;;;;;15.17;12.07;;;;;;;17.16;100.00;100809.34;2099545;28;20026;-67
2021/09/15 04:43:22;;;;;;;15.87;11.77;;;;;;;17.16;100.00;100806.72;2090515;28;20290;-67
2021/09/15 04:44:23;;;;;;;18.43;13.47;;;;;;;17.17;100.00;100807.56;2090548;28;20045;-69